createdAt,value
2022-09-30T04:13:09.020Z,11.43
2022-09-30T04:16:12.307Z,11.39
2022-09-30T04:19:15.337Z,11.42
2022-09-30T04:22:18.339Z,11.42
2022-09-30T04:25:20.846Z,11.51
2022-09-30T04:28:23.710Z,11.58
2022-09-30T04:31:26.195Z,11.55
2022-09-30T04:34:29.024Z,11.55
2022-09-30T04:37:31.618Z,11.59
2022-09-30T04:40:38.692Z,11.58
2022-09-30T04:43:47.008Z,11.62
2022-09-30T04:46:51.234Z,11.64
2022-09-30T04:49:53.714Z,11.69
2022-09-30T04:52:57.345Z,11.81
2022-09-30T04:56:01.219Z,11.78
2022-09-30T04:59:04.399Z,11.80
2022-09-30T05:02:06.944Z,11.84
2022-09-30T05:05:09.867Z,11.88
2022-09-30T05:08:12.288Z,11.96
2022-09-30T05:11:18.540Z,12.03
2022-09-30T05:14:21.128Z,11.92
2022-09-30T05:17:23.998Z,11.99
2022-09-30T05:20:26.548Z,11.95
2022-09-30T05:23:31.101Z,11.96
2022-09-30T05:26:33.607Z,12.04
2022-09-30T05:29:36.303Z,12.05
2022-09-30T05:32:39.680Z,12.15
2022-09-30T05:35:43.621Z,12.21
2022-09-30T05:38:46.203Z,12.25
2022-09-30T05:41:49.040Z,12.21
2022-09-30T05:44:51.574Z,12.32
2022-09-30T05:47:55.168Z,12.37
2022-09-30T05:51:00.926Z,12.37
2022-09-30T05:54:03.733Z,12.39
2022-09-30T05:57:08.021Z,12.40
2022-09-30T06:00:11.425Z,12.45
2022-09-30T06:03:14.849Z,12.51
2022-09-30T06:06:19.123Z,12.39
2022-09-30T06:09:21.733Z,12.40
2022-09-30T06:12:26.193Z,12.52
2022-09-30T06:15:28.694Z,12.47
2022-09-30T06:18:31.559Z,12.43
2022-09-30T06:21:34.069Z,12.45
2022-09-30T06:24:37.218Z,12.44
2022-09-30T06:27:39.990Z,12.44
2022-09-30T06:30:44.706Z,12.54
2022-09-30T06:33:47.209Z,12.60
2022-09-30T06:36:50.490Z,12.52
2022-09-30T09:10:26.058Z,13.74
2022-09-30T09:13:54.051Z,13.74
2022-09-30T09:17:03.296Z,13.85
2022-09-30T09:20:16.894Z,13.80
2022-09-30T09:27:18.966Z,14.44
2022-09-30T09:30:24.125Z,14.85
2022-09-30T09:33:39.436Z,15.34
2022-09-30T09:36:54.189Z,15.49
2022-09-30T09:40:05.123Z,15.21
2022-09-30T09:43:13.591Z,15.34
2022-09-30T09:46:27.337Z,15.40
2022-09-30T09:49:41.649Z,15.57
2022-09-30T09:52:57.581Z,15.55
2022-09-30T09:56:03.102Z,15.31
2022-09-30T09:59:19.747Z,15.60
2022-09-30T10:02:32.634Z,15.93
2022-09-30T10:05:42.549Z,15.93
2022-09-30T10:08:56.930Z,16.00
2022-09-30T10:12:05.286Z,16.14
2022-09-30T10:15:26.340Z,15.84
2022-09-30T10:18:33.030Z,15.43
2022-09-30T10:21:35.611Z,15.53
2022-09-30T10:24:39.671Z,15.62
2022-09-30T10:28:00.980Z,15.60
2022-09-30T10:31:14.419Z,15.57
2022-09-30T10:34:36.466Z,15.49
2022-09-30T10:37:51.585Z,15.47
2022-09-30T10:40:54.501Z,15.41
2022-09-30T10:44:01.154Z,15.38
2022-09-30T10:47:04.009Z,15.33
2022-09-30T10:50:13.011Z,15.22
2022-09-30T10:53:23.198Z,15.24
2022-09-30T10:56:39.701Z,15.33
2022-09-30T10:59:46.905Z,15.45
2022-09-30T11:06:56.236Z,15.73
2022-09-30T11:10:15.317Z,15.72
2022-09-30T11:13:27.573Z,15.85
2022-09-30T11:20:57.285Z,15.82
2022-09-30T11:39:00.249Z,15.81
2022-09-30T11:42:11.954Z,16.21
2022-09-30T11:45:14.890Z,16.34
2022-09-30T11:48:34.626Z,16.35
2022-09-30T11:51:47.410Z,16.36
2022-09-30T11:54:59.122Z,16.27
2022-09-30T11:58:28.758Z,16.36
2022-09-30T12:01:39.275Z,16.72
2022-09-30T12:04:45.605Z,17.42
2022-09-30T12:07:55.421Z,17.63
2022-09-30T12:11:07.476Z,17.20
2022-09-30T12:14:40.327Z,17.34
2022-09-30T12:17:48.586Z,18.20
2022-09-30T12:21:00.786Z,18.43
2022-09-30T12:24:15.622Z,18.96
2022-09-30T12:27:27.797Z,19.17
2022-09-30T12:30:30.962Z,19.03
2022-09-30T12:33:59.824Z,19.03
2022-09-30T12:37:08.442Z,18.56
2022-09-30T12:40:40.652Z,18.23
2022-09-30T12:44:05.870Z,18.20
2022-09-30T12:47:15.871Z,18.56
2022-09-30T12:50:22.434Z,18.04
2022-09-30T12:53:32.097Z,17.87
2022-09-30T12:56:35.448Z,18.21
2022-09-30T12:59:47.024Z,18.29
2022-09-30T13:02:56.496Z,18.33
2022-09-30T13:06:06.545Z,18.70
2022-09-30T13:09:29.600Z,18.50
2022-09-30T13:12:46.869Z,18.68
2022-09-30T13:19:36.315Z,17.69
2022-09-30T13:22:39.750Z,17.88
2022-09-30T13:25:53.886Z,18.29
2022-09-30T13:29:00.031Z,18.44
2022-09-30T13:32:04.245Z,18.21
2022-09-30T13:35:41.736Z,18.48
2022-09-30T13:38:44.430Z,18.00
2022-09-30T13:42:13.874Z,18.09
2022-09-30T13:45:31.256Z,18.65
2022-09-30T13:48:39.442Z,19.05
2022-09-30T13:51:46.051Z,19.17
2022-09-30T13:54:51.300Z,18.98
2022-09-30T13:58:33.983Z,18.90
2022-09-30T14:01:39.961Z,18.80
2022-09-30T14:05:01.438Z,18.67
2022-09-30T14:08:32.993Z,18.17
2022-09-30T14:12:17.136Z,17.78
2022-09-30T14:15:42.470Z,18.22
2022-09-30T14:18:58.203Z,18.32
2022-09-30T14:22:07.051Z,17.79
2022-09-30T14:25:15.641Z,18.00
2022-09-30T14:28:38.979Z,17.90
2022-09-30T14:31:46.320Z,18.17
2022-09-30T14:34:49.229Z,17.78
2022-09-30T14:37:59.173Z,17.96
2022-09-30T14:41:12.911Z,17.65
2022-09-30T14:44:17.883Z,17.79
2022-09-30T14:47:22.491Z,17.86
2022-09-30T14:50:35.778Z,17.59
2022-09-30T14:53:53.365Z,17.35
2022-09-30T14:56:58.521Z,16.96
2022-09-30T15:00:21.473Z,17.04
2022-09-30T15:03:27.952Z,17.20
2022-09-30T15:06:33.710Z,17.22
